sensor_id;sensor_type;location;lat;lon;timestamp;P1;durP1;ratioP1;P2;durP2;ratioP2
151;SDS011;68;48.792;9.164;2024-02-21T00:01:25;24.98;;;17.25;;
151;SDS011;68;48.792;9.164;2024-02-21T00:03:52;24.60;;;16.40;;
151;SDS011;68;48.792;9.164;2024-02-21T00:06:19;21.00;;;16.55;;
151;SDS011;68;48.792;9.164;2024-02-21T00:08:47;34.38;;;17.17;;
151;SDS011;68;48.792;9.164;2024-02-21T00:11:14;23.77;;;17.40;;
151;SDS011;68;48.792;9.164;2024-02-21T00:13:41;25.60;;;17.45;;
151;SDS011;68;48.792;9.164;2024-02-21T00:16:07;27.25;;;17.48;;
151;SDS011;68;48.792;9.164;2024-02-21T00:18:35;28.23;;;17.73;;
151;SDS011;68;48.792;9.164;2024-02-21T00:21:02;22.58;;;16.63;;
151;SDS011;68;48.792;9.164;2024-02-21T00:23:29;20.67;;;17.05;;
151;SDS011;68;48.792;9.164;2024-02-21T00:25:57;22.80;;;16.92;;
151;SDS011;68;48.792;9.164;2024-02-21T00:28:24;27.23;;;17.50;;
151;SDS011;68;48.792;9.164;2024-02-21T00:30:51;27.10;;;17.27;;
151;SDS011;68;48.792;9.164;2024-02-21T00:33:19;24.63;;;16.77;;
151;SDS011;68;48.792;9.164;2024-02-21T00:35:46;25.85;;;16.55;;
151;SDS011;68;48.792;9.164;2024-02-21T00:38:13;24.42;;;17.08;;
151;SDS011;68;48.792;9.164;2024-02-21T00:40:40;20.90;;;16.52;;
151;SDS011;68;48.792;9.164;2024-02-21T00:43:08;22.08;;;16.05;;
151;SDS011;68;48.792;9.164;2024-02-21T00:45:35;19.98;;;16.73;;
151;SDS011;68;48.792;9.164;2024-02-21T00:48:02;22.40;;;16.63;;
151;SDS011;68;48.792;9.164;2024-02-21T00:50:29;26.67;;;16.77;;
151;SDS011;68;48.792;9.164;2024-02-21T00:52:57;25.45;;;16.90;;
151;SDS011;68;48.792;9.164;2024-02-21T00:55:23;22.95;;;15.90;;
151;SDS011;68;48.792;9.164;2024-02-21T00:57:50;21.55;;;17.02;;
151;SDS011;68;48.792;9.164;2024-02-21T01:00:19;26.02;;;16.48;;
151;SDS011;68;48.792;9.164;2024-02-21T01:02:46;24.88;;;16.20;;
151;SDS011;68;48.792;9.164;2024-02-21T01:05:12;27.77;;;16.45;;
151;SDS011;68;48.792;9.164;2024-02-21T01:07:39;25.23;;;17.40;;
151;SDS011;68;48.792;9.164;2024-02-21T01:10:07;21.33;;;15.85;;
151;SDS011;68;48.792;9.164;2024-02-21T01:12:34;24.15;;;16.30;;
151;SDS011;68;48.792;9.164;2024-02-21T01:15:01;19.90;;;16.50;;
151;SDS011;68;48.792;9.164;2024-02-21T01:17:30;27.45;;;17.25;;
151;SDS011;68;48.792;9.164;2024-02-21T01:19:57;25.08;;;17.73;;
151;SDS011;68;48.792;9.164;2024-02-21T01:22:24;22.33;;;16.90;;
151;SDS011;68;48.792;9.164;2024-02-21T01:24:50;25.77;;;17.58;;
151;SDS011;68;48.792;9.164;2024-02-21T01:27:17;23.00;;;16.73;;
151;SDS011;68;48.792;9.164;2024-02-21T01:29:44;27.33;;;16.65;;
151;SDS011;68;48.792;9.164;2024-02-21T01:32:11;20.92;;;16.55;;
151;SDS011;68;48.792;9.164;2024-02-21T01:34:39;23.17;;;16.65;;
151;SDS011;68;48.792;9.164;2024-02-21T01:37:06;23.70;;;16.55;;
151;SDS011;68;48.792;9.164;2024-02-21T01:39:33;23.48;;;16.40;;
151;SDS011;68;48.792;9.164;2024-02-21T01:42:00;27.60;;;17.58;;
151;SDS011;68;48.792;9.164;2024-02-21T01:44:27;30.00;;;17.35;;
151;SDS011;68;48.792;9.164;2024-02-21T01:46:54;22.73;;;16.40;;
151;SDS011;68;48.792;9.164;2024-02-21T01:49:21;27.55;;;16.77;;
151;SDS011;68;48.792;9.164;2024-02-21T01:51:49;23.67;;;17.05;;
151;SDS011;68;48.792;9.164;2024-02-21T01:54:17;22.15;;;16.48;;
151;SDS011;68;48.792;9.164;2024-02-21T01:56:44;25.83;;;16.20;;
151;SDS011;68;48.792;9.164;2024-02-21T01:59:12;21.55;;;17.17;;
151;SDS011;68;48.792;9.164;2024-02-21T02:01:41;17.85;;;15.68;;
151;SDS011;68;48.792;9.164;2024-02-21T02:04:08;22.42;;;16.60;;
151;SDS011;68;48.792;9.164;2024-02-21T02:06:35;21.50;;;16.10;;
151;SDS011;68;48.792;9.164;2024-02-21T02:09:03;24.38;;;16.27;;
151;SDS011;68;48.792;9.164;2024-02-21T02:11:31;23.25;;;16.45;;
151;SDS011;68;48.792;9.164;2024-02-21T02:13:58;20.40;;;15.77;;
151;SDS011;68;48.792;9.164;2024-02-21T02:16:25;19.45;;;15.95;;
151;SDS011;68;48.792;9.164;2024-02-21T02:18:52;22.10;;;16.10;;
151;SDS011;68;48.792;9.164;2024-02-21T02:21:22;20.08;;;15.73;;
151;SDS011;68;48.792;9.164;2024-02-21T02:23:54;26.10;;;16.95;;
151;SDS011;68;48.792;9.164;2024-02-21T02:26:21;24.80;;;16.85;;
151;SDS011;68;48.792;9.164;2024-02-21T02:28:48;19.88;;;16.52;;
151;SDS011;68;48.792;9.164;2024-02-21T02:31:15;25.35;;;16.70;;
151;SDS011;68;48.792;9.164;2024-02-21T02:33:42;21.60;;;16.48;;
151;SDS011;68;48.792;9.164;2024-02-21T02:36:10;24.83;;;16.95;;
151;SDS011;68;48.792;9.164;2024-02-21T02:38:36;21.38;;;15.90;;
151;SDS011;68;48.792;9.164;2024-02-21T02:41:05;21.40;;;16.70;;
151;SDS011;68;48.792;9.164;2024-02-21T02:43:31;27.17;;;16.70;;
151;SDS011;68;48.792;9.164;2024-02-21T02:45:58;26.45;;;17.27;;
151;SDS011;68;48.792;9.164;2024-02-21T02:48:25;20.10;;;16.60;;
151;SDS011;68;48.792;9.164;2024-02-21T02:50:52;20.60;;;15.60;;
151;SDS011;68;48.792;9.164;2024-02-21T02:53:18;23.60;;;16.85;;
151;SDS011;68;48.792;9.164;2024-02-21T02:55:45;21.13;;;16.27;;
151;SDS011;68;48.792;9.164;2024-02-21T02:58:13;22.00;;;15.95;;
151;SDS011;68;48.792;9.164;2024-02-21T03:00:40;25.05;;;17.60;;
151;SDS011;68;48.792;9.164;2024-02-21T03:03:07;24.05;;;17.33;;
151;SDS011;68;48.792;9.164;2024-02-21T03:05:34;31.23;;;18.25;;
151;SDS011;68;48.792;9.164;2024-02-21T03:08:01;27.10;;;16.73;;
151;SDS011;68;48.792;9.164;2024-02-21T03:10:31;21.92;;;16.23;;
151;SDS011;68;48.792;9.164;2024-02-21T03:12:58;25.05;;;16.08;;
151;SDS011;68;48.792;9.164;2024-02-21T03:15:27;20.35;;;17.13;;
151;SDS011;68;48.792;9.164;2024-02-21T03:17:53;21.48;;;16.58;;
151;SDS011;68;48.792;9.164;2024-02-21T03:20:20;22.50;;;16.23;;
151;SDS011;68;48.792;9.164;2024-02-21T03:22:47;22.30;;;16.38;;
151;SDS011;68;48.792;9.164;2024-02-21T03:25:13;23.98;;;16.80;;
151;SDS011;68;48.792;9.164;2024-02-21T03:27:40;24.63;;;16.95;;
151;SDS011;68;48.792;9.164;2024-02-21T03:30:08;18.70;;;15.90;;
151;SDS011;68;48.792;9.164;2024-02-21T03:32:37;18.90;;;16.80;;
151;SDS011;68;48.792;9.164;2024-02-21T03:35:04;26.83;;;16.98;;
151;SDS011;68;48.792;9.164;2024-02-21T03:37:31;22.53;;;16.73;;
151;SDS011;68;48.792;9.164;2024-02-21T03:39:58;20.20;;;16.15;;
151;SDS011;68;48.792;9.164;2024-02-21T03:42:24;22.27;;;16.77;;
151;SDS011;68;48.792;9.164;2024-02-21T03:44:51;23.15;;;16.92;;
151;SDS011;68;48.792;9.164;2024-02-21T03:47:18;25.02;;;17.05;;
151;SDS011;68;48.792;9.164;2024-02-21T03:49:46;25.83;;;16.90;;
151;SDS011;68;48.792;9.164;2024-02-21T03:52:13;19.48;;;16.05;;
151;SDS011;68;48.792;9.164;2024-02-21T03:54:39;27.00;;;16.63;;
151;SDS011;68;48.792;9.164;2024-02-21T03:57:06;22.13;;;16.60;;
151;SDS011;68;48.792;9.164;2024-02-21T03:59:33;23.75;;;16.58;;
151;SDS011;68;48.792;9.164;2024-02-21T04:01:59;21.35;;;16.83;;
151;SDS011;68;48.792;9.164;2024-02-21T04:04:29;23.50;;;16.73;;
151;SDS011;68;48.792;9.164;2024-02-21T04:06:57;21.58;;;16.45;;
151;SDS011;68;48.792;9.164;2024-02-21T04:09:23;21.90;;;17.15;;
151;SDS011;68;48.792;9.164;2024-02-21T04:11:50;26.13;;;17.33;;
151;SDS011;68;48.792;9.164;2024-02-21T04:14:17;21.77;;;16.33;;
151;SDS011;68;48.792;9.164;2024-02-21T04:16:44;19.85;;;16.52;;
151;SDS011;68;48.792;9.164;2024-02-21T04:19:10;24.85;;;16.80;;
151;SDS011;68;48.792;9.164;2024-02-21T04:21:37;25.70;;;16.73;;
151;SDS011;68;48.792;9.164;2024-02-21T04:24:05;22.98;;;16.70;;
151;SDS011;68;48.792;9.164;2024-02-21T04:26:32;27.05;;;16.52;;
151;SDS011;68;48.792;9.164;2024-02-21T04:28:59;19.15;;;16.67;;
151;SDS011;68;48.792;9.164;2024-02-21T04:31:26;22.70;;;16.90;;
151;SDS011;68;48.792;9.164;2024-02-21T04:33:53;22.98;;;17.08;;
151;SDS011;68;48.792;9.164;2024-02-21T04:36:19;21.80;;;16.60;;
151;SDS011;68;48.792;9.164;2024-02-21T04:38:46;22.65;;;16.80;;
151;SDS011;68;48.792;9.164;2024-02-21T04:41:15;22.15;;;16.83;;
151;SDS011;68;48.792;9.164;2024-02-21T04:43:42;17.75;;;15.95;;
151;SDS011;68;48.792;9.164;2024-02-21T04:46:08;22.20;;;17.00;;
151;SDS011;68;48.792;9.164;2024-02-21T04:48:35;20.35;;;16.15;;
151;SDS011;68;48.792;9.164;2024-02-21T04:51:02;22.65;;;16.60;;
151;SDS011;68;48.792;9.164;2024-02-21T04:53:29;19.35;;;15.65;;
151;SDS011;68;48.792;9.164;2024-02-21T04:55:56;21.13;;;16.52;;
151;SDS011;68;48.792;9.164;2024-02-21T04:58:24;20.38;;;15.85;;
151;SDS011;68;48.792;9.164;2024-02-21T05:00:51;22.95;;;16.15;;
151;SDS011;68;48.792;9.164;2024-02-21T05:03:19;23.05;;;16.20;;
151;SDS011;68;48.792;9.164;2024-02-21T05:05:46;20.23;;;16.20;;
151;SDS011;68;48.792;9.164;2024-02-21T05:08:13;23.23;;;16.75;;
151;SDS011;68;48.792;9.164;2024-02-21T05:10:40;18.20;;;15.40;;
151;SDS011;68;48.792;9.164;2024-02-21T05:13:07;21.15;;;15.70;;
151;SDS011;68;48.792;9.164;2024-02-21T05:15:35;18.52;;;15.25;;
151;SDS011;68;48.792;9.164;2024-02-21T05:18:02;20.50;;;15.70;;
151;SDS011;68;48.792;9.164;2024-02-21T05:20:29;22.42;;;15.48;;
151;SDS011;68;48.792;9.164;2024-02-21T05:22:55;20.55;;;15.25;;
151;SDS011;68;48.792;9.164;2024-02-21T05:25:22;17.73;;;15.68;;
151;SDS011;68;48.792;9.164;2024-02-21T05:27:50;24.58;;;15.70;;
151;SDS011;68;48.792;9.164;2024-02-21T05:30:18;20.25;;;15.93;;
151;SDS011;68;48.792;9.164;2024-02-21T05:32:46;18.95;;;15.32;;
151;SDS011;68;48.792;9.164;2024-02-21T05:35:13;20.08;;;15.02;;
151;SDS011;68;48.792;9.164;2024-02-21T05:37:40;23.48;;;16.13;;
151;SDS011;68;48.792;9.164;2024-02-21T05:40:07;17.33;;;15.45;;
151;SDS011;68;48.792;9.164;2024-02-21T05:42:37;18.52;;;15.43;;
151;SDS011;68;48.792;9.164;2024-02-21T05:45:04;19.40;;;15.85;;
151;SDS011;68;48.792;9.164;2024-02-21T05:47:31;21.98;;;15.48;;
151;SDS011;68;48.792;9.164;2024-02-21T05:49:59;19.85;;;15.32;;
151;SDS011;68;48.792;9.164;2024-02-21T05:52:26;20.10;;;15.48;;
151;SDS011;68;48.792;9.164;2024-02-21T05:54:53;17.27;;;15.88;;
151;SDS011;68;48.792;9.164;2024-02-21T05:57:20;20.30;;;15.68;;
151;SDS011;68;48.792;9.164;2024-02-21T05:59:47;22.23;;;16.65;;
151;SDS011;68;48.792;9.164;2024-02-21T06:02:13;20.25;;;15.73;;
151;SDS011;68;48.792;9.164;2024-02-21T06:04:43;18.63;;;15.65;;
151;SDS011;68;48.792;9.164;2024-02-21T06:07:12;21.73;;;15.50;;
151;SDS011;68;48.792;9.164;2024-02-21T06:09:39;18.45;;;15.52;;
151;SDS011;68;48.792;9.164;2024-02-21T06:12:06;20.65;;;16.00;;
151;SDS011;68;48.792;9.164;2024-02-21T06:14:33;21.60;;;15.60;;
151;SDS011;68;48.792;9.164;2024-02-21T06:17:00;18.48;;;16.10;;
151;SDS011;68;48.792;9.164;2024-02-21T06:19:27;22.30;;;16.33;;
151;SDS011;68;48.792;9.164;2024-02-21T06:21:54;21.80;;;16.30;;
151;SDS011;68;48.792;9.164;2024-02-21T06:24:22;23.25;;;17.02;;
151;SDS011;68;48.792;9.164;2024-02-21T06:26:48;20.95;;;16.52;;
151;SDS011;68;48.792;9.164;2024-02-21T06:29:17;22.25;;;16.98;;
151;SDS011;68;48.792;9.164;2024-02-21T06:31:44;22.17;;;17.13;;
151;SDS011;68;48.792;9.164;2024-02-21T06:34:11;23.60;;;17.27;;
151;SDS011;68;48.792;9.164;2024-02-21T06:36:37;21.00;;;15.98;;
151;SDS011;68;48.792;9.164;2024-02-21T06:39:04;19.38;;;15.55;;
151;SDS011;68;48.792;9.164;2024-02-21T06:41:33;20.58;;;15.82;;
151;SDS011;68;48.792;9.164;2024-02-21T06:44:00;24.52;;;16.85;;
151;SDS011;68;48.792;9.164;2024-02-21T06:46:28;25.02;;;16.17;;
151;SDS011;68;48.792;9.164;2024-02-21T06:48:55;21.10;;;17.05;;
151;SDS011;68;48.792;9.164;2024-02-21T06:51:22;22.30;;;18.80;;
151;SDS011;68;48.792;9.164;2024-02-21T06:53:49;23.77;;;17.65;;
151;SDS011;68;48.792;9.164;2024-02-21T06:56:16;28.02;;;17.95;;
151;SDS011;68;48.792;9.164;2024-02-21T06:58:44;22.05;;;16.98;;
151;SDS011;68;48.792;9.164;2024-02-21T07:01:11;20.25;;;15.93;;
151;SDS011;68;48.792;9.164;2024-02-21T07:03:38;19.88;;;16.45;;
151;SDS011;68;48.792;9.164;2024-02-21T07:06:05;24.27;;;17.38;;
151;SDS011;68;48.792;9.164;2024-02-21T07:08:32;23.60;;;16.20;;
151;SDS011;68;48.792;9.164;2024-02-21T07:10:59;22.05;;;16.65;;
151;SDS011;68;48.792;9.164;2024-02-21T07:13:25;20.45;;;17.00;;
151;SDS011;68;48.792;9.164;2024-02-21T07:15:53;25.90;;;17.55;;
151;SDS011;68;48.792;9.164;2024-02-21T07:18:20;22.05;;;16.73;;
151;SDS011;68;48.792;9.164;2024-02-21T07:20:47;25.30;;;16.92;;
151;SDS011;68;48.792;9.164;2024-02-21T07:23:14;26.27;;;16.98;;
151;SDS011;68;48.792;9.164;2024-02-21T07:25:40;20.63;;;15.82;;
151;SDS011;68;48.792;9.164;2024-02-21T07:28:07;21.15;;;15.30;;
151;SDS011;68;48.792;9.164;2024-02-21T07:30:34;20.52;;;15.70;;
151;SDS011;68;48.792;9.164;2024-02-21T07:33:02;24.88;;;16.40;;
151;SDS011;68;48.792;9.164;2024-02-21T07:35:30;20.98;;;16.45;;
151;SDS011;68;48.792;9.164;2024-02-21T07:37:56;22.05;;;16.20;;
151;SDS011;68;48.792;9.164;2024-02-21T07:40:23;17.10;;;15.60;;
151;SDS011;68;48.792;9.164;2024-02-21T07:42:50;19.35;;;16.05;;
151;SDS011;68;48.792;9.164;2024-02-21T07:45:17;17.05;;;15.25;;
151;SDS011;68;48.792;9.164;2024-02-21T07:47:46;18.75;;;16.00;;
151;SDS011;68;48.792;9.164;2024-02-21T07:50:14;20.45;;;16.52;;
151;SDS011;68;48.792;9.164;2024-02-21T07:52:42;23.60;;;16.00;;
151;SDS011;68;48.792;9.164;2024-02-21T07:55:09;17.42;;;16.05;;
151;SDS011;68;48.792;9.164;2024-02-21T07:57:36;19.83;;;15.40;;
151;SDS011;68;48.792;9.164;2024-02-21T08:00:03;18.35;;;15.57;;
151;SDS011;68;48.792;9.164;2024-02-21T08:02:31;17.98;;;15.63;;
151;SDS011;68;48.792;9.164;2024-02-21T08:04:58;20.70;;;16.33;;
151;SDS011;68;48.792;9.164;2024-02-21T08:07:26;22.98;;;15.80;;
151;SDS011;68;48.792;9.164;2024-02-21T08:09:54;16.25;;;15.25;;
151;SDS011;68;48.792;9.164;2024-02-21T08:12:21;19.02;;;14.95;;
151;SDS011;68;48.792;9.164;2024-02-21T08:14:47;21.30;;;15.93;;
151;SDS011;68;48.792;9.164;2024-02-21T08:17:14;17.85;;;15.77;;
151;SDS011;68;48.792;9.164;2024-02-21T08:19:41;18.38;;;15.85;;
151;SDS011;68;48.792;9.164;2024-02-21T08:22:07;17.83;;;15.38;;
151;SDS011;68;48.792;9.164;2024-02-21T08:24:36;19.70;;;15.75;;
151;SDS011;68;48.792;9.164;2024-02-21T08:27:03;21.13;;;15.13;;
151;SDS011;68;48.792;9.164;2024-02-21T08:29:31;19.45;;;15.32;;
151;SDS011;68;48.792;9.164;2024-02-21T08:31:57;25.38;;;16.15;;
151;SDS011;68;48.792;9.164;2024-02-21T08:34:24;20.83;;;15.15;;
151;SDS011;68;48.792;9.164;2024-02-21T08:36:51;18.92;;;15.50;;
151;SDS011;68;48.792;9.164;2024-02-21T08:39:18;18.40;;;15.35;;
151;SDS011;68;48.792;9.164;2024-02-21T08:41:46;21.13;;;15.07;;
151;SDS011;68;48.792;9.164;2024-02-21T08:44:13;21.38;;;15.43;;
151;SDS011;68;48.792;9.164;2024-02-21T08:46:39;24.95;;;16.30;;
151;SDS011;68;48.792;9.164;2024-02-21T08:49:06;20.17;;;15.57;;
151;SDS011;68;48.792;9.164;2024-02-21T08:51:33;19.50;;;15.75;;
151;SDS011;68;48.792;9.164;2024-02-21T08:54:00;22.67;;;16.05;;
151;SDS011;68;48.792;9.164;2024-02-21T08:56:29;20.17;;;14.88;;
151;SDS011;68;48.792;9.164;2024-02-21T08:58:57;17.95;;;15.23;;
151;SDS011;68;48.792;9.164;2024-02-21T09:01:24;20.05;;;15.93;;
151;SDS011;68;48.792;9.164;2024-02-21T09:03:51;18.88;;;15.70;;
151;SDS011;68;48.792;9.164;2024-02-21T09:06:19;17.63;;;15.50;;
151;SDS011;68;48.792;9.164;2024-02-21T09:08:46;18.73;;;15.00;;
151;SDS011;68;48.792;9.164;2024-02-21T09:11:13;20.80;;;14.85;;
151;SDS011;68;48.792;9.164;2024-02-21T09:13:40;19.45;;;15.45;;
151;SDS011;68;48.792;9.164;2024-02-21T09:16:08;21.58;;;15.60;;
151;SDS011;68;48.792;9.164;2024-02-21T09:18:35;17.33;;;15.05;;
151;SDS011;68;48.792;9.164;2024-02-21T09:21:02;17.95;;;15.02;;
151;SDS011;68;48.792;9.164;2024-02-21T09:23:29;19.98;;;15.57;;
151;SDS011;68;48.792;9.164;2024-02-21T09:25:56;18.48;;;15.02;;
151;SDS011;68;48.792;9.164;2024-02-21T09:28:25;20.20;;;15.07;;
151;SDS011;68;48.792;9.164;2024-02-21T09:30:52;17.98;;;14.55;;
151;SDS011;68;48.792;9.164;2024-02-21T09:33:20;18.27;;;14.40;;
151;SDS011;68;48.792;9.164;2024-02-21T09:35:47;18.23;;;14.93;;
151;SDS011;68;48.792;9.164;2024-02-21T09:38:14;15.52;;;14.07;;
151;SDS011;68;48.792;9.164;2024-02-21T09:40:41;19.88;;;14.65;;
151;SDS011;68;48.792;9.164;2024-02-21T09:43:08;16.40;;;14.20;;
151;SDS011;68;48.792;9.164;2024-02-21T09:45:35;16.75;;;14.48;;
151;SDS011;68;48.792;9.164;2024-02-21T09:51:03;15.55;;;13.75;;
151;SDS011;68;48.792;9.164;2024-02-21T09:53:31;18.98;;;14.95;;
151;SDS011;68;48.792;9.164;2024-02-21T09:56:00;22.33;;;15.02;;
151;SDS011;68;48.792;9.164;2024-02-21T09:58:28;17.80;;;14.30;;
151;SDS011;68;48.792;9.164;2024-02-21T10:00:55;22.27;;;13.95;;
151;SDS011;68;48.792;9.164;2024-02-21T10:03:22;17.88;;;14.70;;
151;SDS011;68;48.792;9.164;2024-02-21T10:05:50;18.45;;;14.63;;
151;SDS011;68;48.792;9.164;2024-02-21T10:08:18;21.15;;;14.88;;
151;SDS011;68;48.792;9.164;2024-02-21T10:10:46;16.00;;;14.50;;
151;SDS011;68;48.792;9.164;2024-02-21T10:13:23;18.55;;;14.63;;
151;SDS011;68;48.792;9.164;2024-02-21T10:16:00;17.70;;;14.57;;
151;SDS011;68;48.792;9.164;2024-02-21T10:18:28;20.02;;;14.50;;
151;SDS011;68;48.792;9.164;2024-02-21T10:21:01;18.02;;;14.80;;
151;SDS011;68;48.792;9.164;2024-02-21T10:23:28;17.13;;;14.50;;
151;SDS011;68;48.792;9.164;2024-02-21T10:26:04;18.70;;;14.32;;
151;SDS011;68;48.792;9.164;2024-02-21T10:28:31;17.40;;;14.77;;
151;SDS011;68;48.792;9.164;2024-02-21T10:30:58;16.40;;;14.20;;
151;SDS011;68;48.792;9.164;2024-02-21T10:33:25;17.58;;;14.10;;
151;SDS011;68;48.792;9.164;2024-02-21T10:35:53;16.60;;;14.20;;
151;SDS011;68;48.792;9.164;2024-02-21T10:38:21;15.32;;;14.20;;
151;SDS011;68;48.792;9.164;2024-02-21T10:40:48;22.95;;;14.07;;
151;SDS011;68;48.792;9.164;2024-02-21T10:43:18;17.80;;;13.50;;
151;SDS011;68;48.792;9.164;2024-02-21T10:45:46;15.32;;;14.25;;
151;SDS011;68;48.792;9.164;2024-02-21T10:48:15;18.88;;;15.02;;
151;SDS011;68;48.792;9.164;2024-02-21T10:50:47;15.73;;;14.13;;
151;SDS011;68;48.792;9.164;2024-02-21T10:53:28;15.38;;;14.02;;
151;SDS011;68;48.792;9.164;2024-02-21T10:56:03;19.23;;;14.70;;
151;SDS011;68;48.792;9.164;2024-02-21T10:58:37;14.60;;;13.88;;
151;SDS011;68;48.792;9.164;2024-02-21T11:01:05;18.65;;;14.40;;
151;SDS011;68;48.792;9.164;2024-02-21T11:03:33;16.00;;;14.45;;
151;SDS011;68;48.792;9.164;2024-02-21T11:06:01;15.73;;;13.50;;
151;SDS011;68;48.792;9.164;2024-02-21T11:08:31;19.10;;;14.57;;
151;SDS011;68;48.792;9.164;2024-02-21T11:10:58;16.17;;;14.05;;
151;SDS011;68;48.792;9.164;2024-02-21T11:13:31;18.58;;;14.95;;
151;SDS011;68;48.792;9.164;2024-02-21T11:16:07;17.92;;;15.45;;
151;SDS011;68;48.792;9.164;2024-02-21T11:18:35;15.68;;;14.35;;
151;SDS011;68;48.792;9.164;2024-02-21T11:21:02;14.60;;;13.90;;
151;SDS011;68;48.792;9.164;2024-02-21T11:23:29;17.00;;;14.10;;
151;SDS011;68;48.792;9.164;2024-02-21T11:26:05;16.50;;;14.88;;
151;SDS011;68;48.792;9.164;2024-02-21T11:28:32;18.20;;;14.80;;
151;SDS011;68;48.792;9.164;2024-02-21T11:31:09;17.08;;;14.88;;
151;SDS011;68;48.792;9.164;2024-02-21T11:33:39;14.98;;;14.18;;
151;SDS011;68;48.792;9.164;2024-02-21T11:36:06;17.15;;;15.27;;
151;SDS011;68;48.792;9.164;2024-02-21T11:38:35;15.57;;;14.52;;
151;SDS011;68;48.792;9.164;2024-02-21T11:41:02;15.23;;;14.40;;
151;SDS011;68;48.792;9.164;2024-02-21T11:43:34;16.45;;;14.10;;
151;SDS011;68;48.792;9.164;2024-02-21T11:46:00;17.13;;;14.50;;
151;SDS011;68;48.792;9.164;2024-02-21T11:48:28;15.30;;;14.30;;
151;SDS011;68;48.792;9.164;2024-02-21T11:50:55;15.77;;;13.75;;
151;SDS011;68;48.792;9.164;2024-02-21T11:53:22;15.13;;;13.65;;
151;SDS011;68;48.792;9.164;2024-02-21T11:55:53;18.40;;;14.50;;
151;SDS011;68;48.792;9.164;2024-02-21T11:58:21;14.60;;;13.90;;
151;SDS011;68;48.792;9.164;2024-02-21T12:00:49;18.17;;;14.30;;
151;SDS011;68;48.792;9.164;2024-02-21T12:03:15;19.38;;;14.80;;
151;SDS011;68;48.792;9.164;2024-02-21T12:05:42;16.38;;;13.63;;
151;SDS011;68;48.792;9.164;2024-02-21T12:08:11;14.80;;;13.25;;
151;SDS011;68;48.792;9.164;2024-02-21T12:10:38;14.35;;;13.65;;
151;SDS011;68;48.792;9.164;2024-02-21T12:13:06;14.70;;;13.35;;
151;SDS011;68;48.792;9.164;2024-02-21T12:15:34;14.23;;;13.52;;
151;SDS011;68;48.792;9.164;2024-02-21T12:18:01;14.07;;;13.38;;
151;SDS011;68;48.792;9.164;2024-02-21T12:20:28;14.00;;;13.30;;
151;SDS011;68;48.792;9.164;2024-02-21T12:22:56;15.70;;;13.18;;
151;SDS011;68;48.792;9.164;2024-02-21T12:25:23;15.88;;;13.40;;
151;SDS011;68;48.792;9.164;2024-02-21T12:27:52;16.88;;;13.20;;
151;SDS011;68;48.792;9.164;2024-02-21T12:30:20;23.00;;;13.43;;
151;SDS011;68;48.792;9.164;2024-02-21T12:32:47;15.32;;;13.02;;
151;SDS011;68;48.792;9.164;2024-02-21T12:35:14;15.77;;;13.93;;
151;SDS011;68;48.792;9.164;2024-02-21T12:37:42;16.35;;;13.10;;
151;SDS011;68;48.792;9.164;2024-02-21T12:40:10;15.85;;;13.88;;
151;SDS011;68;48.792;9.164;2024-02-21T12:42:38;14.43;;;13.73;;
151;SDS011;68;48.792;9.164;2024-02-21T12:45:05;14.13;;;13.30;;
151;SDS011;68;48.792;9.164;2024-02-21T12:47:34;14.40;;;13.70;;
151;SDS011;68;48.792;9.164;2024-02-21T12:50:01;13.75;;;13.10;;
151;SDS011;68;48.792;9.164;2024-02-21T12:52:31;14.00;;;13.25;;
151;SDS011;68;48.792;9.164;2024-02-21T12:54:58;17.30;;;14.27;;
151;SDS011;68;48.792;9.164;2024-02-21T12:57:25;14.10;;;13.40;;
151;SDS011;68;48.792;9.164;2024-02-21T12:59:52;14.00;;;13.30;;
151;SDS011;68;48.792;9.164;2024-02-21T13:02:18;14.05;;;13.35;;
151;SDS011;68;48.792;9.164;2024-02-21T13:04:47;14.30;;;13.60;;
151;SDS011;68;48.792;9.164;2024-02-21T13:07:14;14.13;;;13.30;;
151;SDS011;68;48.792;9.164;2024-02-21T13:09:40;14.25;;;13.55;;
151;SDS011;68;48.792;9.164;2024-02-21T13:12:07;14.68;;;13.95;;
151;SDS011;68;48.792;9.164;2024-02-21T13:14:34;14.82;;;14.02;;
151;SDS011;68;48.792;9.164;2024-02-21T13:17:03;14.80;;;14.00;;
151;SDS011;68;48.792;9.164;2024-02-21T13:19:30;14.50;;;13.73;;
151;SDS011;68;48.792;9.164;2024-02-21T13:21:59;14.68;;;13.90;;
151;SDS011;68;48.792;9.164;2024-02-21T13:24:25;14.07;;;13.40;;
151;SDS011;68;48.792;9.164;2024-02-21T13:26:52;14.93;;;13.60;;
151;SDS011;68;48.792;9.164;2024-02-21T13:29:19;13.82;;;13.15;;
151;SDS011;68;48.792;9.164;2024-02-21T13:31:46;15.13;;;13.90;;
151;SDS011;68;48.792;9.164;2024-02-21T13:34:13;14.98;;;14.18;;
151;SDS011;68;48.792;9.164;2024-02-21T13:36:40;16.05;;;13.55;;
151;SDS011;68;48.792;9.164;2024-02-21T13:39:08;14.95;;;14.15;;
151;SDS011;68;48.792;9.164;2024-02-21T13:41:37;14.43;;;13.73;;
151;SDS011;68;48.792;9.164;2024-02-21T13:44:04;14.63;;;13.85;;
151;SDS011;68;48.792;9.164;2024-02-21T13:46:31;14.10;;;13.40;;
151;SDS011;68;48.792;9.164;2024-02-21T13:49:02;17.33;;;13.20;;
151;SDS011;68;48.792;9.164;2024-02-21T13:51:31;14.40;;;13.10;;
151;SDS011;68;48.792;9.164;2024-02-21T13:53:58;12.88;;;12.18;;
151;SDS011;68;48.792;9.164;2024-02-21T13:56:26;15.20;;;13.73;;
151;SDS011;68;48.792;9.164;2024-02-21T13:58:53;13.73;;;13.02;;
151;SDS011;68;48.792;9.164;2024-02-21T14:01:20;14.15;;;13.13;;
151;SDS011;68;48.792;9.164;2024-02-21T14:03:46;13.80;;;13.10;;
151;SDS011;68;48.792;9.164;2024-02-21T14:06:13;16.23;;;13.50;;
151;SDS011;68;48.792;9.164;2024-02-21T14:08:40;14.02;;;13.32;;
151;SDS011;68;48.792;9.164;2024-02-21T14:11:07;16.83;;;13.38;;
151;SDS011;68;48.792;9.164;2024-02-21T14:13:35;14.38;;;13.00;;
151;SDS011;68;48.792;9.164;2024-02-21T14:16:02;13.40;;;12.70;;
151;SDS011;68;48.792;9.164;2024-02-21T14:18:29;13.85;;;13.15;;
151;SDS011;68;48.792;9.164;2024-02-21T14:20:56;13.50;;;12.80;;
151;SDS011;68;48.792;9.164;2024-02-21T14:23:22;13.68;;;12.98;;
151;SDS011;68;48.792;9.164;2024-02-21T14:25:49;14.93;;;13.23;;
151;SDS011;68;48.792;9.164;2024-02-21T14:28:16;13.55;;;12.85;;
151;SDS011;68;48.792;9.164;2024-02-21T14:30:44;13.50;;;12.80;;
151;SDS011;68;48.792;9.164;2024-02-21T14:33:12;13.98;;;13.27;;
151;SDS011;68;48.792;9.164;2024-02-21T14:35:39;13.80;;;13.10;;
151;SDS011;68;48.792;9.164;2024-02-21T14:38:07;14.82;;;13.30;;
151;SDS011;68;48.792;9.164;2024-02-21T14:40:34;14.05;;;13.35;;
151;SDS011;68;48.792;9.164;2024-02-21T14:43:00;13.55;;;12.85;;
151;SDS011;68;48.792;9.164;2024-02-21T14:45:27;14.80;;;14.00;;
151;SDS011;68;48.792;9.164;2024-02-21T14:47:56;13.50;;;12.80;;
151;SDS011;68;48.792;9.164;2024-02-21T14:50:22;14.32;;;12.65;;
151;SDS011;68;48.792;9.164;2024-02-21T14:52:49;13.73;;;13.02;;
151;SDS011;68;48.792;9.164;2024-02-21T14:55:17;13.30;;;12.60;;
151;SDS011;68;48.792;9.164;2024-02-21T14:57:44;13.65;;;12.73;;
151;SDS011;68;48.792;9.164;2024-02-21T15:00:11;13.63;;;12.93;;
151;SDS011;68;48.792;9.164;2024-02-21T15:02:38;14.27;;;13.57;;
151;SDS011;68;48.792;9.164;2024-02-21T15:05:07;14.07;;;13.38;;
151;SDS011;68;48.792;9.164;2024-02-21T15:07:34;13.45;;;12.75;;
151;SDS011;68;48.792;9.164;2024-02-21T15:10:01;13.50;;;12.80;;
151;SDS011;68;48.792;9.164;2024-02-21T15:12:28;13.45;;;12.75;;
151;SDS011;68;48.792;9.164;2024-02-21T15:14:56;13.38;;;12.68;;
151;SDS011;68;48.792;9.164;2024-02-21T15:17:24;13.43;;;12.73;;
151;SDS011;68;48.792;9.164;2024-02-21T15:19:51;16.08;;;12.82;;
151;SDS011;68;48.792;9.164;2024-02-21T15:22:21;13.23;;;12.52;;
151;SDS011;68;48.792;9.164;2024-02-21T15:24:48;13.90;;;13.20;;
151;SDS011;68;48.792;9.164;2024-02-21T15:27:14;13.98;;;12.90;;
151;SDS011;68;48.792;9.164;2024-02-21T15:29:41;13.60;;;12.90;;
151;SDS011;68;48.792;9.164;2024-02-21T15:32:09;13.43;;;12.73;;
151;SDS011;68;48.792;9.164;2024-02-21T15:34:36;16.48;;;13.07;;